Time;durP1;ratioP1;P1;durP2;ratioP2;P2;SDS_P1;SDS_P2;PMS_P1;PMS_P2;Temp;Humidity;BMP_temperature;BMP_pressure;BME280_temperature;BME280_humidity;BME280_pressure;Samples;Min_cycle;Max_cycle;Signal;HPM_P1;HPM_P2
2022/12/03 00:00:36;;;;;;;123.90;42.27;;;0.00;99.90;;;;;;5129755;27;20462;-80
2022/12/03 00:03:04;;;;;;;107.33;41.80;;;-0.10;99.90;;;;;;5132667;27;20462;-78
2022/12/03 00:05:32;;;;;;;101.90;42.53;;;-0.10;99.90;;;;;;5132963;27;20439;-79
2022/12/03 00:08:00;;;;;;;103.80;41.37;;;0.00;99.90;;;;;;5116009;27;20464;-78
2022/12/03 00:10:28;;;;;;;110.87;41.77;;;0.00;99.90;;;;;;5114474;27;20210;-81
2022/12/03 00:12:56;;;;;;;120.47;43.27;;;0.00;99.90;;;;;;5112032;28;20226;-78
2022/12/03 00:15:26;;;;;;;100.40;41.83;;;0.00;99.90;;;;;;5112556;28;20534;-80
2022/12/03 00:17:54;;;;;;;104.60;41.30;;;0.10;99.90;;;;;;5111680;28;20483;-78
2022/12/03 00:20:24;;;;;;;105.23;37.10;;;0.20;99.90;;;;;;5114434;28;20217;-79
2022/12/03 00:22:52;;;;;;;133.23;40.07;;;0.00;99.90;;;;;;5111631;28;20447;-80
2022/12/03 00:25:20;;;;;;;105.87;39.80;;;0.00;99.90;;;;;;5112658;28;20447;-80
2022/12/03 00:27:48;;;;;;;92.17;39.03;;;0.00;99.90;;;;;;5112303;28;20968;-78
2022/12/03 00:30:17;;;;;;;134.43;38.23;;;0.00;99.90;;;;;;5125897;28;20562;-79
2022/12/03 00:32:46;;;;;;;112.50;34.47;;;-0.10;99.90;;;;;;5112165;28;20488;-81
2022/12/03 00:35:14;;;;;;;140.13;34.47;;;-0.10;99.90;;;;;;5116357;28;20455;-77
2022/12/03 00:37:42;;;;;;;95.23;35.70;;;-0.20;99.90;;;;;;5116261;28;20915;-82
2022/12/03 00:40:12;;;;;;;84.10;33.83;;;-0.20;99.90;;;;;;5115879;27;20468;-80
2022/12/03 00:42:40;;;;;;;84.67;34.73;;;-0.20;99.90;;;;;;5115917;28;20949;-80
2022/12/03 00:45:09;;;;;;;127.90;33.30;;;-0.20;99.90;;;;;;5116027;28;20448;-79
2022/12/03 00:47:37;;;;;;;87.83;32.73;;;-0.20;99.90;;;;;;5116614;27;20498;-80
2022/12/03 00:50:07;;;;;;;91.23;32.50;;;-0.20;99.90;;;;;;5116284;28;20461;-80
2022/12/03 00:52:35;;;;;;;98.47;32.83;;;-0.30;99.90;;;;;;5115639;28;20593;-81
2022/12/03 00:55:04;;;;;;;90.67;33.20;;;-0.30;99.90;;;;;;5115632;28;20448;-80
2022/12/03 00:57:32;;;;;;;92.30;33.67;;;-0.30;99.90;;;;;;5137212;27;20450;-80
2022/12/03 01:00:00;;;;;;;107.00;34.67;;;-0.20;99.90;;;;;;5130228;27;20455;-80
2022/12/03 01:02:28;;;;;;;107.90;35.03;;;-0.20;99.90;;;;;;5115922;28;20444;-78
2022/12/03 01:04:56;;;;;;;141.13;35.57;;;-0.30;99.90;;;;;;5116292;28;20458;-82
2022/12/03 01:07:26;;;;;;;90.60;34.13;;;-0.20;99.90;;;;;;5121912;27;20470;-78
2022/12/03 01:09:54;;;;;;;123.33;34.20;;;-0.20;99.90;;;;;;5115888;28;20538;-78
2022/12/03 01:12:22;;;;;;;286.03;36.00;;;-0.20;99.90;;;;;;5115805;28;20221;-79
2022/12/03 01:14:50;;;;;;;155.03;36.37;;;-0.40;99.90;;;;;;5115465;28;20439;-81
2022/12/03 01:17:19;;;;;;;108.97;32.97;;;-0.40;99.90;;;;;;5115732;28;20452;-77
2022/12/03 01:19:47;;;;;;;124.13;33.67;;;-0.40;99.90;;;;;;5115426;28;20444;-75
2022/12/03 01:22:15;;;;;;;99.33;33.90;;;-0.40;99.90;;;;;;5115396;28;20451;-74
2022/12/03 01:24:45;;;;;;;101.27;33.10;;;-0.40;99.90;;;;;;5116466;28;20466;-76
2022/12/03 01:27:13;;;;;;;155.43;33.70;;;-0.30;99.90;;;;;;5121849;27;20573;-75
2022/12/03 01:29:41;;;;;;;104.00;35.27;;;-0.40;99.90;;;;;;5137390;27;20212;-80
2022/12/03 01:32:18;;;;;;;89.33;34.93;;;-0.40;99.90;;;;;;5135227;27;20489;-78
2022/12/03 01:34:48;;;;;;;101.93;35.87;;;-0.30;99.90;;;;;;5121873;27;20459;-80
2022/12/03 01:37:17;;;;;;;124.47;35.83;;;-0.30;99.90;;;;;;5115192;28;20435;-80
2022/12/03 01:39:46;;;;;;;105.53;34.20;;;-0.30;99.90;;;;;;5115497;28;20444;-80
2022/12/03 01:42:17;;;;;;;100.77;33.73;;;-0.40;99.90;;;;;;5115335;28;20202;-79
2022/12/03 01:44:46;;;;;;;138.40;36.70;;;-0.40;99.90;;;;;;5114055;28;20563;-80
2022/12/03 01:47:17;;;;;;;78.00;34.30;;;-0.50;99.90;;;;;;5115082;28;20834;-80
2022/12/03 01:49:49;;;;;;;80.90;34.00;;;-0.50;99.90;;;;;;5115441;28;20894;-78
2022/12/03 01:52:20;;;;;;;87.70;34.00;;;-0.50;99.90;;;;;;5113897;27;20578;-79
2022/12/03 01:54:53;;;;;;;107.67;35.20;;;-0.50;99.90;;;;;;5114951;28;20758;-76
2022/12/03 01:57:26;;;;;;;123.23;36.33;;;-0.50;99.90;;;;;;5114845;28;20442;-76
2022/12/03 01:59:57;;;;;;;172.00;36.63;;;-0.50;99.90;;;;;;5115501;28;20436;-77
2022/12/03 02:02:28;;;;;;;113.10;36.60;;;-0.60;99.90;;;;;;5136727;27;20465;-79
2022/12/03 02:04:56;;;;;;;224.40;38.37;;;-0.60;99.90;;;;;;5142824;27;20442;-79
2022/12/03 02:07:27;;;;;;;103.47;36.40;;;-0.60;99.90;;;;;;5141547;27;20457;-74
2022/12/03 02:09:58;;;;;;;106.97;36.77;;;-0.70;99.90;;;;;;5138936;27;20459;-80
2022/12/03 02:12:32;;;;;;;92.33;36.90;;;-0.60;99.90;;;;;;5115998;28;20578;-80
2022/12/03 02:15:01;;;;;;;106.53;35.70;;;-0.70;99.90;;;;;;5115933;28;20474;-75
2022/12/03 02:17:29;;;;;;;89.67;33.60;;;-0.70;99.90;;;;;;5114662;28;20443;-78
2022/12/03 02:19:58;;;;;;;93.93;34.53;;;-0.70;99.90;;;;;;5114707;27;20988;-80
2022/12/03 02:22:37;;;;;;;89.43;34.73;;;-0.70;99.90;;;;;;5114306;28;20535;-78
2022/12/03 02:25:11;;;;;;;102.37;35.77;;;-0.70;99.90;;;;;;5115075;28;20973;-79
2022/12/03 02:27:39;;;;;;;86.60;33.50;;;-0.70;99.90;;;;;;5133393;27;20461;-79
2022/12/03 02:30:09;;;;;;;107.27;36.00;;;-0.70;99.90;;;;;;5143605;27;20451;-75
2022/12/03 02:32:38;;;;;;;81.67;34.63;;;-0.70;99.90;;;;;;5154426;27;20470;-76
2022/12/03 02:35:06;;;;;;;78.17;33.97;;;-0.70;99.90;;;;;;5137512;27;20455;-78
2022/12/03 02:37:35;;;;;;;70.47;31.90;;;-0.70;99.90;;;;;;5114377;28;20466;-80
2022/12/03 02:40:07;;;;;;;70.00;31.23;;;-0.70;99.90;;;;;;5114533;28;20447;-79
2022/12/03 02:42:35;;;;;;;72.10;31.37;;;-0.70;99.90;;;;;;5113753;28;20840;-79
2022/12/03 02:45:08;;;;;;;76.00;31.97;;;-0.80;99.90;;;;;;5114247;28;20456;-80
2022/12/03 02:47:41;;;;;;;72.03;32.00;;;-0.70;99.90;;;;;;5114135;28;20796;-81
2022/12/03 02:50:11;;;;;;;91.93;33.53;;;-0.70;99.90;;;;;;5113826;27;20421;-79
2022/12/03 02:52:40;;;;;;;71.30;33.23;;;-0.80;99.90;;;;;;5134064;27;20576;-79
2022/12/03 02:55:09;;;;;;;72.80;31.50;;;-0.70;99.90;;;;;;5134392;27;20427;-79
2022/12/03 02:57:39;;;;;;;73.20;33.07;;;-0.70;99.90;;;;;;5134130;27;20447;-81
2022/12/03 03:00:10;;;;;;;71.13;32.40;;;-0.70;99.90;;;;;;5115680;27;20463;-80
2022/12/03 03:02:40;;;;;;;75.37;33.43;;;-0.60;99.90;;;;;;5113911;28;20433;-80
2022/12/03 03:05:11;;;;;;;71.03;33.17;;;-0.60;99.90;;;;;;5113899;28;20538;-79
2022/12/03 03:07:40;;;;;;;94.60;35.03;;;-0.60;99.90;;;;;;5113702;27;20464;-79
2022/12/03 03:10:12;;;;;;;76.07;33.90;;;-0.60;99.90;;;;;;5113704;28;20858;-78
2022/12/03 03:12:41;;;;;;;111.53;36.17;;;-0.50;99.90;;;;;;5113323;28;20483;-80
2022/12/03 03:15:11;;;;;;;94.87;36.77;;;-0.60;99.90;;;;;;5113576;27;20464;-77
2022/12/03 03:17:40;;;;;;;78.53;35.17;;;-0.60;99.90;;;;;;5113915;28;20458;-77
2022/12/03 03:20:10;;;;;;;79.10;34.60;;;-0.60;99.90;;;;;;5114004;28;20448;-80
2022/12/03 03:22:40;;;;;;;70.20;32.70;;;-0.50;99.90;;;;;;5114668;28;20432;-77
2022/12/03 03:25:12;;;;;;;89.63;30.60;;;-0.60;99.90;;;;;;5125427;27;20463;-77
2022/12/03 03:27:42;;;;;;;72.20;30.27;;;-0.60;99.90;;;;;;5133682;27;20462;-80
2022/12/03 03:30:11;;;;;;;86.23;33.00;;;-0.70;99.90;;;;;;5133326;27;20430;-78
2022/12/03 03:32:41;;;;;;;76.73;32.30;;;-0.70;99.90;;;;;;5124387;27;20487;-77
2022/12/03 03:35:10;;;;;;;67.57;31.57;;;-0.60;99.90;;;;;;5113069;28;20466;-80
2022/12/03 03:37:39;;;;;;;79.37;32.50;;;-0.60;99.90;;;;;;5114606;28;20452;-78
2022/12/03 03:40:08;;;;;;;69.03;31.57;;;-0.50;99.90;;;;;;5112675;28;20467;-79
2022/12/03 03:42:37;;;;;;;70.43;31.37;;;-0.50;99.90;;;;;;5124899;27;20466;-79
2022/12/03 03:45:09;;;;;;;67.20;30.77;;;-0.50;99.90;;;;;;5132908;27;20494;-76
2022/12/03 03:47:37;;;;;;;70.60;30.87;;;-0.50;99.90;;;;;;5133039;27;20424;-80
2022/12/03 03:50:07;;;;;;;72.77;30.63;;;-0.50;99.90;;;;;;5133015;27;20446;-80
2022/12/03 03:52:37;;;;;;;64.77;30.27;;;-0.50;99.90;;;;;;5115111;27;20471;-81
2022/12/03 03:55:06;;;;;;;69.93;30.47;;;-0.50;99.90;;;;;;5112926;28;20455;-77
2022/12/03 03:57:34;;;;;;;64.10;29.73;;;-0.50;99.90;;;;;;5117206;28;20443;-75
2022/12/03 04:00:03;;;;;;;63.90;30.67;;;-0.50;99.90;;;;;;5114269;28;20491;-77
2022/12/03 04:02:33;;;;;;;64.27;31.87;;;-0.60;99.90;;;;;;5116361;28;20793;-77
2022/12/03 04:05:01;;;;;;;65.17;31.57;;;-0.60;99.90;;;;;;5114321;28;20432;-80
2022/12/03 04:07:30;;;;;;;67.90;32.47;;;-0.50;99.90;;;;;;5112583;28;20464;-80
2022/12/03 04:09:59;;;;;;;84.20;32.90;;;-0.50;99.90;;;;;;5112328;28;20456;-80
2022/12/03 04:15:17;;;;;;;71.10;32.43;;;-0.50;99.90;;;;;;5096657;28;20464;-80
2022/12/03 04:18:41;;;;;;;62.97;28.50;;;-0.40;99.90;;;;;;5111874;28;20914;-81
2022/12/03 04:20:36;;;;;;;64.30;29.67;;;-0.50;99.90;;;;;;5112006;28;20440;-80
2022/12/03 04:23:04;;;;;;;59.83;29.00;;;-0.50;99.90;;;;;;5117088;28;20450;-80
2022/12/03 04:35:41;;;;;;;63.40;29.43;;;-0.40;99.90;;;;;;5112240;28;20562;-79
2022/12/03 04:36:50;;;;;;;64.00;30.10;;;-0.30;99.90;;;;;;5048918;28;20469;-80
2022/12/03 04:39:18;;;;;;;72.13;31.80;;;-0.20;99.90;;;;;;5097597;28;20452;-79
2022/12/03 04:41:47;;;;;;;86.10;33.43;;;-0.20;99.90;;;;;;5111664;28;20824;-79
2022/12/03 04:47:00;;;;;;;79.27;35.63;;;-0.20;99.90;;;;;;5112351;28;20535;-73
2022/12/03 04:49:30;;;;;;;91.50;35.27;;;-0.20;99.90;;;;;;5112082;28;20199;-80
2022/12/03 04:51:58;;;;;;;95.43;35.37;;;-0.20;99.90;;;;;;5111698;28;20225;-80
2022/12/03 04:54:27;;;;;;;112.33;35.67;;;-0.20;99.90;;;;;;5122611;28;20228;-76
2022/12/03 04:56:55;;;;;;;93.33;37.40;;;-0.20;99.90;;;;;;5132607;28;20451;-78
2022/12/03 04:59:23;;;;;;;98.60;37.27;;;-0.20;99.90;;;;;;5132384;28;20932;-77
2022/12/03 05:01:51;;;;;;;95.77;38.17;;;-0.20;99.90;;;;;;5131282;28;20455;-80
2022/12/03 05:04:38;;;;;;;94.30;37.33;;;-0.10;99.90;;;;;;5077474;28;20456;-80
2022/12/03 05:07:06;;;;;;;102.07;36.73;;;-0.10;99.90;;;;;;5112029;28;20513;-78
2022/12/03 05:09:34;;;;;;;91.73;36.97;;;-0.10;99.90;;;;;;5112370;28;20464;-79
2022/12/03 05:12:02;;;;;;;87.40;36.97;;;-0.10;99.90;;;;;;5111470;28;20450;-79
2022/12/03 05:14:31;;;;;;;97.27;37.60;;;-0.10;99.90;;;;;;5111378;28;20530;-76
2022/12/03 05:16:58;;;;;;;83.43;35.27;;;-0.10;99.90;;;;;;5111664;28;20448;-76
2022/12/03 05:22:10;;;;;;;97.60;37.97;;;-0.10;99.90;;;;;;5124867;27;20443;-77
2022/12/03 05:24:38;;;;;;;95.87;35.37;;;-0.10;99.90;;;;;;5119547;28;20444;-79
2022/12/03 05:27:06;;;;;;;88.60;37.50;;;-0.10;99.90;;;;;;5115802;28;20538;-78
2022/12/03 05:29:34;;;;;;;85.93;36.17;;;-0.10;99.90;;;;;;5115224;28;20228;-78
2022/12/03 05:32:02;;;;;;;94.07;36.43;;;0.00;99.90;;;;;;5106406;28;20973;-78
2022/12/03 05:34:31;;;;;;;89.43;37.17;;;0.00;99.90;;;;;;5115471;28;20482;-81
2022/12/03 05:36:59;;;;;;;95.13;36.10;;;0.00;99.90;;;;;;5115076;28;20206;-81
2022/12/03 05:39:28;;;;;;;104.93;36.07;;;0.00;99.90;;;;;;5114736;27;20444;-80
2022/12/03 05:44:41;;;;;;;83.93;35.63;;;0.00;99.90;;;;;;5135453;27;20201;-81
2022/12/03 05:47:09;;;;;;;91.53;36.73;;;0.00;99.90;;;;;;5134605;27;20450;-77
2022/12/03 05:49:37;;;;;;;80.43;34.07;;;0.00;99.90;;;;;;5135243;27;20459;-78
2022/12/03 05:52:05;;;;;;;83.43;35.00;;;0.00;99.90;;;;;;5135007;27;20477;-80
2022/12/03 05:54:35;;;;;;;82.00;34.30;;;-0.10;99.90;;;;;;5135290;27;20518;-74
2022/12/03 05:57:03;;;;;;;90.47;35.23;;;0.00;99.90;;;;;;5134407;27;20454;-79
2022/12/03 05:59:32;;;;;;;64.73;30.90;;;0.00;99.90;;;;;;5114328;28;20209;-76
2022/12/03 06:01:59;;;;;;;67.77;33.30;;;-0.10;99.90;;;;;;5114770;28;20796;-79
2022/12/03 06:04:28;;;;;;;79.03;34.10;;;-0.10;99.90;;;;;;5114928;28;20444;-81
2022/12/03 06:06:56;;;;;;;87.10;35.67;;;-0.10;99.90;;;;;;5116176;28;20447;-78
2022/12/03 06:09:24;;;;;;;71.33;31.87;;;0.00;99.90;;;;;;5136161;28;20458;-79
2022/12/03 06:11:54;;;;;;;62.67;30.87;;;0.00;99.90;;;;;;5127367;28;20293;-78
2022/12/03 06:14:23;;;;;;;70.07;33.07;;;0.00;99.90;;;;;;5115532;28;20491;-80
2022/12/03 06:16:51;;;;;;;67.83;31.47;;;-0.10;99.90;;;;;;5113375;28;20210;-81
2022/12/03 06:19:19;;;;;;;68.80;31.40;;;-0.10;99.90;;;;;;5114378;28;20443;-82
2022/12/03 06:21:47;;;;;;;61.17;30.27;;;-0.10;99.90;;;;;;5132316;27;20478;-79
2022/12/03 06:24:15;;;;;;;63.00;31.23;;;-0.10;99.90;;;;;;5135574;27;20555;-79
2022/12/03 06:26:43;;;;;;;56.17;29.47;;;-0.10;99.90;;;;;;5116130;27;20475;-77
2022/12/03 06:29:13;;;;;;;62.37;30.80;;;0.00;99.90;;;;;;5114769;28;20440;-80
2022/12/03 06:31:41;;;;;;;51.50;27.97;;;-0.10;99.90;;;;;;5118641;27;20225;-75
2022/12/03 06:34:09;;;;;;;52.90;28.30;;;-0.10;99.90;;;;;;5134533;27;20494;-75
2022/12/03 06:36:37;;;;;;;53.80;28.23;;;-0.10;99.90;;;;;;5135450;27;20435;-75
2022/12/03 06:39:05;;;;;;;52.00;28.50;;;-0.10;99.90;;;;;;5135512;27;20463;-78
2022/12/03 06:41:33;;;;;;;49.67;26.73;;;0.00;99.90;;;;;;5134592;27;20463;-77
2022/12/03 06:44:01;;;;;;;49.90;26.10;;;-0.10;99.90;;;;;;5135043;27;20925;-79
2022/12/03 06:46:31;;;;;;;54.30;27.83;;;-0.10;99.90;;;;;;5135328;27;20205;-75
2022/12/03 06:48:59;;;;;;;46.70;26.07;;;-0.10;99.90;;;;;;5136845;27;20431;-80
2022/12/03 06:51:27;;;;;;;43.27;24.83;;;0.00;99.90;;;;;;5136270;27;20466;-75
2022/12/03 06:53:55;;;;;;;39.35;23.65;;;-0.10;99.90;;;;;;5139721;27;20467;-74
2022/12/03 06:56:23;;;;;;;45.00;26.73;;;-0.20;99.90;;;;;;5138893;27;20534;-77
2022/12/03 06:59:01;;;;;;;43.07;25.23;;;-0.20;99.90;;;;;;5133327;27;21037;-75
2022/12/03 07:01:30;;;;;;;43.77;25.43;;;-0.10;99.90;;;;;;5113508;28;20443;-78
2022/12/03 07:03:59;;;;;;;44.63;25.40;;;0.00;99.90;;;;;;5113596;28;20455;-76
2022/12/03 07:06:27;;;;;;;42.83;24.87;;;-0.10;99.90;;;;;;5113986;28;20455;-75
2022/12/03 07:08:58;;;;;;;50.67;25.03;;;-0.20;99.90;;;;;;5116766;28;20965;-74
2022/12/03 07:11:31;;;;;;;44.13;24.90;;;-0.20;99.90;;;;;;5122590;28;20448;-76
2022/12/03 07:14:01;;;;;;;42.30;25.03;;;-0.20;99.90;;;;;;5121070;28;20818;-77
2022/12/03 07:16:34;;;;;;;47.07;25.47;;;-0.20;99.90;;;;;;5118927;28;20222;-80
2022/12/03 07:19:07;;;;;;;49.07;25.43;;;-0.10;99.90;;;;;;5122273;27;20919;-79
2022/12/03 07:21:35;;;;;;;48.53;26.10;;;-0.10;99.90;;;;;;5134003;27;20470;-79
2022/12/03 07:24:03;;;;;;;44.70;25.40;;;-0.10;99.90;;;;;;5125089;27;20461;-77
2022/12/03 07:26:31;;;;;;;45.77;25.30;;;0.00;99.90;;;;;;5133481;27;20443;-78
2022/12/03 07:28:59;;;;;;;48.70;26.27;;;0.00;99.90;;;;;;5122675;27;20470;-78
2022/12/03 07:31:28;;;;;;;41.87;24.80;;;-0.10;99.90;;;;;;5113233;28;20299;-78
2022/12/03 07:33:57;;;;;;;39.00;23.93;;;0.00;99.90;;;;;;5112839;28;20216;-77
2022/12/03 07:36:25;;;;;;;42.13;24.60;;;0.00;99.90;;;;;;5112217;28;20486;-81
2022/12/03 07:38:53;;;;;;;36.70;22.33;;;0.00;99.90;;;;;;5112704;28;20210;-73
2022/12/03 07:41:21;;;;;;;37.97;22.87;;;0.00;99.90;;;;;;5112940;28;20949;-73
2022/12/03 07:43:50;;;;;;;34.53;21.73;;;0.00;99.90;;;;;;5124285;27;20217;-75
2022/12/03 07:46:18;;;;;;;37.03;23.00;;;0.00;99.90;;;;;;5133227;27;20461;-77
2022/12/03 07:48:46;;;;;;;37.00;22.23;;;0.00;99.90;;;;;;5133842;27;20463;-75
2022/12/03 07:51:15;;;;;;;37.13;22.53;;;0.00;99.90;;;;;;5132458;27;20443;-79
2022/12/03 07:53:43;;;;;;;36.57;22.60;;;0.00;99.90;;;;;;5131346;27;20509;-77
2022/12/03 07:56:12;;;;;;;39.70;23.87;;;0.00;99.90;;;;;;5133331;27;20479;-80
2022/12/03 07:58:40;;;;;;;39.43;23.83;;;0.00;99.90;;;;;;5132521;27;20451;-78
2022/12/03 08:01:09;;;;;;;39.00;24.00;;;0.00;99.90;;;;;;5129308;27;20439;-75
2022/12/03 08:03:37;;;;;;;46.37;25.13;;;0.00;99.90;;;;;;5130883;27;20536;-79
2022/12/03 08:06:05;;;;;;;31.73;21.03;;;0.90;99.90;;;;;;5120301;27;20870;-78
2022/12/03 08:08:35;;;;;;;31.00;20.63;;;1.80;99.90;;;;;;5136306;27;20659;-73
2022/12/03 08:11:04;;;;;;;29.47;20.17;;;1.10;99.90;;;;;;5128143;27;20297;-79
2022/12/03 08:13:34;;;;;;;29.90;19.77;;;0.80;99.90;;;;;;5131590;27;20447;-74
2022/12/03 08:16:14;;;;;;;30.80;20.00;;;0.40;99.90;;;;;;5132908;27;20296;-78
2022/12/03 08:18:44;;;;;;;31.47;20.03;;;0.30;99.90;;;;;;5132794;27;20538;-80
2022/12/03 08:21:14;;;;;;;31.90;20.47;;;0.20;99.90;;;;;;5133233;28;20205;-79
2022/12/03 08:23:44;;;;;;;32.37;21.13;;;0.20;99.90;;;;;;5131330;28;20960;-79
2022/12/03 08:26:19;;;;;;;29.87;20.23;;;0.20;99.90;;;;;;5132680;28;20218;-77
2022/12/03 08:28:48;;;;;;;32.30;21.53;;;0.10;99.90;;;;;;5132902;28;20774;-79
2022/12/03 08:31:19;;;;;;;31.97;21.13;;;0.00;99.90;;;;;;5132248;28;20229;-79
2022/12/03 08:33:48;;;;;;;30.77;20.73;;;0.10;99.90;;;;;;5112386;28;20230;-73
2022/12/03 08:36:21;;;;;;;32.60;21.67;;;0.10;99.90;;;;;;5112365;28;20233;-77
2022/12/03 08:38:54;;;;;;;34.73;22.80;;;0.00;99.90;;;;;;5113059;28;20440;-76
2022/12/03 08:44:16;;;;;;;34.17;22.30;;;0.10;99.90;;;;;;5111083;28;20454;-80
2022/12/03 08:46:44;;;;;;;34.63;22.30;;;0.10;99.90;;;;;;5112323;28;20514;-78
2022/12/03 08:49:14;;;;;;;34.07;22.37;;;0.00;99.90;;;;;;5112128;28;20216;-78
2022/12/03 08:51:43;;;;;;;34.80;21.47;;;0.10;99.90;;;;;;5112395;28;20482;-78
2022/12/03 08:54:19;;;;;;;33.17;21.47;;;0.10;99.90;;;;;;5112934;28;20462;-79
2022/12/03 08:56:47;;;;;;;34.83;21.67;;;0.10;99.90;;;;;;5116337;27;20505;-79
2022/12/03 08:59:28;;;;;;;33.77;21.77;;;0.00;99.90;;;;;;5116211;28;20440;-74
2022/12/03 09:01:56;;;;;;;29.53;20.93;;;0.10;99.90;;;;;;5116084;28;20423;-74
2022/12/03 09:04:28;;;;;;;35.40;21.93;;;0.10;99.90;;;;;;5115828;27;20945;-77
2022/12/03 09:06:57;;;;;;;32.80;21.67;;;0.10;99.90;;;;;;5116358;28;20199;-77
2022/12/03 09:09:27;;;;;;;33.33;21.77;;;0.20;99.90;;;;;;5115604;28;20436;-77
2022/12/03 09:11:55;;;;;;;32.53;21.43;;;0.20;99.90;;;;;;5115486;28;20209;-75
2022/12/03 09:14:24;;;;;;;30.53;20.93;;;0.20;99.90;;;;;;5116232;27;20248;-73
2022/12/03 09:16:54;;;;;;;35.97;21.20;;;0.20;99.90;;;;;;5129719;27;20248;-75
2022/12/03 09:19:23;;;;;;;31.73;22.17;;;0.20;99.90;;;;;;5138410;27;20190;-76
2022/12/03 09:21:52;;;;;;;35.57;23.00;;;0.20;99.90;;;;;;5137014;27;20534;-79
2022/12/03 09:24:21;;;;;;;33.77;21.27;;;0.20;99.90;;;;;;5115511;28;20478;-75
2022/12/03 09:26:50;;;;;;;34.50;22.07;;;0.10;99.90;;;;;;5115507;28;20461;-76
2022/12/03 09:29:18;;;;;;;35.80;22.33;;;0.30;99.90;;;;;;5116244;28;20439;-76
2022/12/03 09:31:46;;;;;;;35.53;22.93;;;0.30;99.90;;;;;;5115261;28;20486;-73
2022/12/03 09:34:15;;;;;;;34.60;22.17;;;0.40;99.90;;;;;;5116353;28;20217;-79
2022/12/03 09:36:43;;;;;;;37.37;21.93;;;0.30;99.90;;;;;;5116071;28;20242;-78
2022/12/03 09:39:11;;;;;;;32.23;21.77;;;0.30;99.90;;;;;;5124855;28;20212;-73
2022/12/03 09:41:39;;;;;;;32.83;21.43;;;0.30;99.90;;;;;;5135232;27;20270;-76
2022/12/03 09:44:09;;;;;;;35.80;22.40;;;0.20;99.90;;;;;;5117190;28;20443;-78
2022/12/03 09:46:46;;;;;;;34.23;21.97;;;0.30;99.90;;;;;;5116256;28;20603;-79
2022/12/03 09:49:18;;;;;;;33.03;21.43;;;0.30;99.90;;;;;;5115626;28;20555;-78
2022/12/03 09:51:46;;;;;;;34.97;21.53;;;0.30;99.90;;;;;;5115700;28;20191;-78
2022/12/03 09:54:23;;;;;;;34.23;22.60;;;0.40;99.90;;;;;;5115484;28;20567;-79
2022/12/03 09:56:52;;;;;;;34.97;22.77;;;0.30;99.90;;;;;;5114843;27;20996;-78
2022/12/03 09:59:23;;;;;;;34.20;22.27;;;0.30;99.90;;;;;;5116076;28;20442;-74
2022/12/03 10:01:52;;;;;;;35.47;22.67;;;0.40;99.90;;;;;;5115179;28;20458;-79
2022/12/03 10:04:21;;;;;;;32.63;21.53;;;0.40;99.90;;;;;;5115749;28;20448;-78
2022/12/03 10:06:49;;;;;;;34.60;22.23;;;0.60;99.90;;;;;;5114493;27;20228;-77
2022/12/03 10:09:24;;;;;;;33.67;21.83;;;0.60;99.90;;;;;;5116642;28;20452;-78
2022/12/03 10:11:52;;;;;;;31.27;20.97;;;0.60;99.90;;;;;;5115682;28;20206;-77
2022/12/03 10:14:21;;;;;;;36.13;22.60;;;0.50;99.90;;;;;;5117567;27;20218;-79
2022/12/03 10:16:50;;;;;;;33.60;22.07;;;0.60;99.90;;;;;;5135682;27;20479;-78
2022/12/03 10:19:22;;;;;;;34.03;22.47;;;0.70;99.90;;;;;;5135323;27;20601;-75
2022/12/03 10:21:50;;;;;;;33.33;22.27;;;0.70;99.90;;;;;;5135394;27;20213;-75
2022/12/03 10:24:25;;;;;;;29.50;21.37;;;0.70;99.90;;;;;;5128175;27;20209;-78
2022/12/03 10:26:56;;;;;;;34.50;21.57;;;0.80;99.90;;;;;;5114922;28;20208;-78
2022/12/03 10:29:28;;;;;;;35.43;23.47;;;0.60;99.90;;;;;;5115118;28;20199;-78
2022/12/03 10:32:03;;;;;;;30.50;20.40;;;0.60;99.90;;;;;;5114813;28;20260;-74
2022/12/03 10:34:33;;;;;;;32.23;21.90;;;0.60;99.90;;;;;;5136057;27;20207;-77
2022/12/03 10:37:11;;;;;;;29.37;20.50;;;0.40;99.90;;;;;;5135759;27;20217;-73
2022/12/03 10:40:00;;;;;;;32.57;21.43;;;0.50;99.90;;;;;;5135591;27;20435;-77
2022/12/03 10:42:30;;;;;;;31.63;21.53;;;0.50;99.90;;;;;;5125788;27;20468;-79
2022/12/03 10:45:14;;;;;;;32.03;21.70;;;0.60;99.90;;;;;;5115003;28;20459;-76
2022/12/03 10:47:42;;;;;;;32.17;21.83;;;0.50;99.90;;;;;;5114753;28;20589;-74
2022/12/03 10:50:18;;;;;;;32.27;21.43;;;0.40;99.90;;;;;;5128549;27;20214;-78
2022/12/03 10:52:46;;;;;;;29.87;21.37;;;0.50;99.90;;;;;;5135049;27;20648;-80
2022/12/03 10:55:15;;;;;;;36.37;24.43;;;0.50;99.90;;;;;;5134870;27;20469;-80
2022/12/03 10:57:44;;;;;;;35.17;23.80;;;0.50;99.90;;;;;;5120595;27;20321;-78
2022/12/03 11:00:18;;;;;;;30.97;21.83;;;0.50;99.90;;;;;;5113595;28;20678;-78
2022/12/03 11:02:47;;;;;;;30.37;21.53;;;0.60;99.90;;;;;;5114068;28;20194;-74
2022/12/03 11:05:26;;;;;;;30.13;22.23;;;0.60;99.90;;;;;;5114271;28;20193;-79
2022/12/03 11:07:55;;;;;;;33.87;23.40;;;0.60;99.90;;;;;;5114507;28;20206;-76
2022/12/03 11:10:27;;;;;;;35.07;24.47;;;0.60;99.90;;;;;;5115101;28;20472;-77
2022/12/03 11:13:29;;;;;;;33.67;23.27;;;0.70;99.90;;;;;;5116319;27;20570;-78
2022/12/03 11:15:59;;;;;;;30.23;22.60;;;0.70;99.90;;;;;;5070449;28;20211;-79
2022/12/03 11:18:59;;;;;;;33.00;23.87;;;0.70;99.90;;;;;;5104625;28;20262;-78
2022/12/03 11:21:28;;;;;;;35.23;24.37;;;0.70;99.90;;;;;;5114312;28;20289;-77
2022/12/03 11:24:18;;;;;;;33.83;24.47;;;0.70;99.90;;;;;;5112641;28;20467;-78
2022/12/03 11:27:07;;;;;;;36.97;25.90;;;0.70;99.90;;;;;;5118915;27;20232;-77
2022/12/03 11:29:55;;;;;;;38.77;26.37;;;0.80;99.90;;;;;;5129605;27;20580;-77
2022/12/03 11:33:08;;;;;;;37.40;24.43;;;0.90;99.90;;;;;;5129061;27;20709;-77
2022/12/03 11:36:14;;;;;;;36.47;25.57;;;0.80;99.90;;;;;;5104175;28;20206;-77
2022/12/03 11:38:51;;;;;;;38.23;24.67;;;0.80;99.90;;;;;;5113070;28;20532;-78
2022/12/03 11:41:24;;;;;;;36.23;24.13;;;0.70;99.90;;;;;;5113478;27;20199;-77
2022/12/03 11:44:28;;;;;;;35.13;24.07;;;0.70;99.90;;;;;;5112642;28;20584;-78
2022/12/03 11:46:58;;;;;;;36.97;24.17;;;0.70;99.90;;;;;;5112888;28;20563;-79
2022/12/03 11:49:39;;;;;;;34.93;23.70;;;0.70;99.90;;;;;;5113202;28;20458;-75
2022/12/03 11:52:27;;;;;;;35.50;23.73;;;0.70;99.90;;;;;;5111784;28;20205;-75
2022/12/03 11:55:13;;;;;;;34.33;23.27;;;0.70;99.90;;;;;;5112773;28;20213;-77
2022/12/03 11:57:43;;;;;;;36.83;23.20;;;0.70;99.90;;;;;;5112542;28;20209;-77
2022/12/03 12:00:19;;;;;;;33.67;22.33;;;0.60;99.90;;;;;;5124529;27;20205;-78
2022/12/03 12:02:48;;;;;;;33.23;21.33;;;0.60;99.90;;;;;;5133185;27;20196;-78
2022/12/03 12:05:25;;;;;;;31.93;21.83;;;0.50;99.90;;;;;;5132757;27;20206;-78
2022/12/03 12:07:56;;;;;;;39.03;24.33;;;0.40;99.90;;;;;;5131817;27;20204;-76
2022/12/03 12:10:44;;;;;;;36.40;22.97;;;0.40;99.90;;;;;;5133447;27;20188;-75
2022/12/03 12:13:43;;;;;;;36.27;23.73;;;0.40;99.90;;;;;;5132618;27;20526;-78
2022/12/03 12:16:11;;;;;;;37.03;24.13;;;0.40;99.90;;;;;;5122270;27;20210;-76
2022/12/03 12:18:41;;;;;;;37.73;24.97;;;0.40;99.90;;;;;;5129741;27;20232;-78
2022/12/03 12:21:43;;;;;;;38.27;24.40;;;0.50;99.90;;;;;;5118557;27;20209;-77
2022/12/03 12:24:46;;;;;;;35.07;23.47;;;0.50;99.90;;;;;;5054621;28;20203;-79
2022/12/03 12:27:16;;;;;;;38.63;25.20;;;0.40;99.90;;;;;;5062611;28;20462;-77
2022/12/03 12:29:50;;;;;;;36.17;23.43;;;0.40;99.90;;;;;;5067501;28;20319;-74
2022/12/03 12:32:22;;;;;;;36.93;24.20;;;0.40;99.90;;;;;;5089217;28;20511;-74
2022/12/03 12:34:53;;;;;;;36.27;23.83;;;0.40;99.90;;;;;;5113310;28;20207;-76
2022/12/03 12:37:29;;;;;;;35.10;23.20;;;0.30;99.90;;;;;;5113281;28;20483;-77
2022/12/03 12:39:58;;;;;;;34.37;23.37;;;0.30;99.90;;;;;;5128417;28;20201;-74
2022/12/03 12:42:32;;;;;;;31.90;21.63;;;0.30;99.90;;;;;;5113148;28;20213;-77
2022/12/03 12:45:12;;;;;;;33.67;21.70;;;0.30;99.90;;;;;;5154236;27;20458;-77
2022/12/03 12:47:47;;;;;;;33.23;21.60;;;0.30;99.90;;;;;;5149961;27;20201;-77
2022/12/03 12:50:16;;;;;;;33.97;23.33;;;0.30;99.90;;;;;;5128862;28;20247;-79
2022/12/03 12:52:51;;;;;;;36.37;23.80;;;0.10;99.90;;;;;;5132210;28;20473;-77
2022/12/03 12:55:22;;;;;;;37.30;23.63;;;0.10;99.90;;;;;;5132042;28;20446;-78
2022/12/03 12:57:51;;;;;;;36.90;23.33;;;0.00;99.90;;;;;;5133073;28;20550;-77
2022/12/03 13:00:23;;;;;;;38.77;23.80;;;0.00;99.90;;;;;;5127105;28;20464;-79
2022/12/03 13:02:55;;;;;;;38.40;23.97;;;0.00;99.90;;;;;;5112426;28;20278;-76
2022/12/03 13:05:26;;;;;;;36.33;23.60;;;0.10;99.90;;;;;;5112552;28;20868;-75
2022/12/03 13:07:55;;;;;;;40.97;25.10;;;0.00;99.90;;;;;;5115224;28;20435;-78
2022/12/03 13:10:35;;;;;;;38.93;24.60;;;0.00;99.90;;;;;;5131284;28;20466;-76
2022/12/03 13:13:20;;;;;;;39.33;24.87;;;0.10;99.90;;;;;;5132678;28;20276;-75